This is the latest recevied weather packets stored in our database for station/object OE-11307. If no packets are shown the sender has not sent any weather packets the latest 10 day(s).
| Time | Temp. | Humidity | Pressure | Rain* | Wind** | Luminosity | Snow |
|---|---|---|---|---|---|---|---|
| 1787844914 | 24.44° C | 65% | 852.6 hPa | 0 mm | - | 214 W/m² | - |
| 1787844314 | 25.56° C | 58% | 852.8 hPa | 0 mm | - | 195 W/m² | - |
| 1787843487 | 25.56° C | 54% | 852.8 hPa | 0 mm | - | 328 W/m² | - |
| 1787843114 | 25.56° C | 59% | 852.6 hPa | 0 mm | - | 378 W/m² | - |
| 1787842514 | 24.44° C | 68% | 852.6 hPa | 0 mm | - | 258 W/m² | - |
| 1787841686 | 25° C | 64% | 852.6 hPa | 0 mm | - | 265 W/m² | - |
| 1787841314 | 25.56° C | 58% | 852.6 hPa | 0 mm | - | 252 W/m² | - |
| 1787839887 | 25.56° C | 62% | 852.7 hPa | 0 mm | - | 334 W/m² | - |
| 1787839514 | 26.11° C | 60% | 852.7 hPa | 0 mm | - | 284 W/m² | - |
| 1787838914 | 26.11° C | 56% | 852.7 hPa | 0 mm | - | 334 W/m² | - |
| 1787838087 | 26.11° C | 58% | 852.6 hPa | 0 mm | - | 422 W/m² | - |
| 1787837714 | 26.11° C | 59% | 852.7 hPa | 0 mm | - | 309 W/m² | - |
| 1787837114 | 26.67° C | 56% | 852.6 hPa | 0 mm | - | 391 W/m² | - |
| 1787836287 | 27.22° C | 44% | 852.6 hPa | 0 mm | - | 372 W/m² | - |
| 1787835913 | 27.22° C | 44% | 852.7 hPa | 0 mm | - | 599 W/m² | - |
| 1787835314 | 26.67° C | 44% | 852.6 hPa | 0 mm | - | 309 W/m² | - |
| 1787834487 | 27.22° C | 44% | 852.7 hPa | 0 mm | - | 529 W/m² | - |
| 1787834113 | 26.67° C | 44% | 852.7 hPa | 0 mm | - | 592 W/m² | - |
| 1787833514 | 26.67° C | 43% | 852.6 hPa | 0 mm | - | 466 W/m² | - |
| 1787832687 | 26.67° C | 43% | 852.6 hPa | 0 mm | - | 636 W/m² | - |
| 1787832314 | 26.67° C | 45% | 852.7 hPa | 0 mm | - | 416 W/m² | - |
| 1787831713 | 26.67° C | 43% | 852.7 hPa | 0 mm | - | 473 W/m² | - |
| 1787830887 | 26.67° C | 42% | 853 hPa | 0 mm | - | 536 W/m² | - |
| 1787830513 | 27.22° C | 40% | 853.1 hPa | 0 mm | - | 731 W/m² | - |
| 1787829913 | 27.22° C | 41% | 853.1 hPa | 0 mm | - | 762 W/m² | - |
* Rain latest hour (hover to see other rain measurements)
** Current wind speed in m/s (hover to see current wind gust speed)